Time;durP1;ratioP1;P1;durP2;ratioP2;P2;SDS_P1;SDS_P2;PMS_P1;PMS_P2;Temp;Humidity;BMP_temperature;BMP_pressure;BME280_temperature;BME280_humidity;BME280_pressure;Samples;Min_cycle;Max_cycle;Signal;HPM_P1;HPM_P2
2020/12/28 00:05:00;;;;;;;1.23;0.50;;;;;;;5.79;94.78;96945.59;18628984;28;20066;-72
2020/12/28 00:14:01;;;;;;;2.17;0.98;;;;;;;5.69;97.07;96955.94;18612973;28;20081;-72
2020/12/28 00:23:02;;;;;;;1.95;0.40;;;;;;;5.49;98.70;96946.53;18624571;28;20259;-72
2020/12/28 00:32:03;;;;;;;1.77;0.70;;;;;;;5.50;98.72;96943.81;18624545;28;20077;-72
2020/12/28 00:41:04;;;;;;;2.05;0.50;;;;;;;5.50;97.55;96940.41;18648145;28;20560;-72
2020/12/28 00:50:06;;;;;;;18.45;6.57;;;;;;;5.45;99.80;96929.63;18644932;28;20557;-72
2020/12/28 00:59:07;;;;;;;2.97;0.70;;;;;;;5.53;97.91;96930.59;18658886;28;20053;-72
2020/12/28 01:08:08;;;;;;;0.20;0.20;;;;;;;5.47;97.23;96918.16;18643101;28;20045;-72
2020/12/28 01:17:09;;;;;;;1.13;0.50;;;;;;;5.46;98.60;96907.91;18639309;28;20072;-71
2020/12/28 01:26:10;;;;;;;3.90;0.50;;;;;;;5.36;100.00;96901.91;18651460;28;20038;-72
2020/12/28 01:35:11;;;;;;;1.58;0.43;;;;;;;5.31;100.00;96915.28;18643319;28;20042;-71
2020/12/28 01:44:12;;;;;;;1.58;0.47;;;;;;;5.31;100.00;96930.03;18640767;28;20128;-72
2020/12/28 01:53:16;;;;;;;1.42;0.35;;;;;;;5.32;100.00;96931.66;18651046;28;20045;-72
2020/12/28 02:02:18;;;;;;;1.95;0.40;;;;;;;5.24;100.00;96915.94;18636293;28;20544;-72
2020/12/28 02:11:19;;;;;;;1.00;0.38;;;;;;;5.18;100.00;96905.16;18635340;28;20047;-72
2020/12/28 02:20:20;;;;;;;1.25;0.47;;;;;;;5.22;100.00;96899.72;18633456;28;20054;-72
2020/12/28 02:29:21;;;;;;;1.92;0.57;;;;;;;5.16;100.00;96898.50;18630563;28;20152;-72
2020/12/28 02:38:22;;;;;;;1.63;0.55;;;;;;;5.20;100.00;96902.44;18638130;28;20050;-72
2020/12/28 02:47:23;;;;;;;2.33;0.47;;;;;;;5.18;100.00;96887.03;18626741;28;20042;-72
2020/12/28 02:56:24;;;;;;;2.63;0.50;;;;;;;5.17;100.00;96884.59;18638798;28;20064;-72
2020/12/28 03:05:24;;;;;;;0.60;0.30;;;;;;;5.14;100.00;96874.47;18626115;28;20081;-71
2020/12/28 03:14:25;;;;;;;1.85;0.28;;;;;;;5.12;100.00;96864.25;18626327;28;20045;-71
2020/12/28 03:23:27;;;;;;;1.02;0.38;;;;;;;5.11;100.00;96880.75;18635051;28;20434;-71
2020/12/28 03:32:28;;;;;;;0.40;0.20;;;;;;;5.13;100.00;96881.44;18637208;28;20125;-71
2020/12/28 03:41:32;;;;;;;1.60;0.50;;;;;;;5.13;100.00;96886.63;18632994;28;20651;-71
2020/12/28 03:50:33;;;;;;;1.10;0.43;;;;;;;5.06;100.00;96859.63;18639586;28;20046;-72
2020/12/28 03:59:34;;;;;;;2.08;0.40;;;;;;;4.91;100.00;96855.78;18633641;28;20616;-71
2020/12/28 04:08:35;;;;;;;1.60;0.55;;;;;;;4.91;100.00;96842.84;18636564;28;20041;-72
2020/12/28 04:17:35;;;;;;;1.17;0.55;;;;;;;4.90;100.00;96832.59;18613821;28;20049;-71
2020/12/28 04:26:36;;;;;;;1.48;0.70;;;;;;;4.86;100.00;96859.72;18623415;28;20052;-71
2020/12/28 04:35:39;;;;;;;2.73;1.07;;;;;;;4.86;100.00;96857.16;18632229;28;20042;-71
2020/12/28 04:44:41;;;;;;;1.77;0.85;;;;;;;4.71;100.00;96812.69;18616938;28;20068;-71
2020/12/28 04:53:44;;;;;;;2.85;0.70;;;;;;;4.68;100.00;96810.34;18629999;28;20137;-71
2020/12/28 05:02:46;;;;;;;1.77;0.60;;;;;;;4.54;100.00;96798.63;18639051;28;20042;-71
2020/12/28 05:12:00;;;;;;;2.38;0.98;;;;;;;4.45;100.00;96809.78;18622702;28;20084;-70
2020/12/28 05:21:01;;;;;;;2.88;1.40;;;;;;;4.45;100.00;96803.78;18627906;28;20635;-71
2020/12/28 05:30:02;;;;;;;2.38;0.90;;;;;;;4.45;100.00;96801.19;18644325;28;20042;-71
2020/12/28 05:39:04;;;;;;;3.40;0.90;;;;;;;4.53;100.00;96788.38;18648539;28;20050;-71
2020/12/28 05:48:05;;;;;;;4.75;1.80;;;;;;;4.37;100.00;96798.47;18632424;28;20069;-71
2020/12/28 05:57:07;;;;;;;2.92;1.30;;;;;;;4.44;100.00;96794.38;18630443;28;20497;-72
2020/12/28 06:06:08;;;;;;;3.65;1.25;;;;;;;4.36;100.00;96799.41;18644320;28;20042;-72
2020/12/28 06:15:20;;;;;;;3.10;1.45;;;;;;;4.29;100.00;96807.69;18641750;28;20673;-71
2020/12/28 06:24:31;;;;;;;3.63;1.70;;;;;;;4.29;100.00;96812.06;18633375;28;20607;-71
2020/12/28 06:33:34;;;;;;;3.03;1.60;;;;;;;4.24;100.00;96820.22;18642812;28;20096;-71
2020/12/28 06:42:35;;;;;;;5.65;3.42;;;;;;;4.29;100.00;96823.22;18632455;28;20074;-71
2020/12/28 06:51:36;;;;;;;5.85;3.00;;;;;;;4.19;100.00;96832.72;18624882;28;20490;-70
2020/12/28 07:00:37;;;;;;;6.88;4.85;;;;;;;4.11;100.00;96832.59;18624913;28;20072;-71
2020/12/28 07:09:39;;;;;;;10.00;8.68;;;;;;;4.10;100.00;96843.88;18620442;28;20077;-70
2020/12/28 07:18:40;;;;;;;7.50;5.20;;;;;;;4.09;100.00;96841.41;18622342;28;20052;-70
2020/12/28 07:27:42;;;;;;;6.38;4.40;;;;;;;4.12;100.00;96843.72;18647119;28;20518;-71
2020/12/28 07:36:48;;;;;;;7.13;4.03;;;;;;;4.20;100.00;96839.56;18632273;28;20043;-71
2020/12/28 07:45:50;;;;;;;9.60;5.85;;;;;;;4.23;100.00;96810.81;18629940;28;20049;-71
2020/12/28 07:55:19;;;;;;;8.90;5.43;;;;;;;4.30;100.00;96799.00;18622926;28;20545;-71
2020/12/28 08:04:24;;;;;;;29.20;17.48;;;;;;;4.31;100.00;96794.63;18624322;28;20073;-71
2020/12/28 08:13:36;;;;;;;14.63;7.80;;;;;;;4.39;100.00;96804.31;18608428;28;20070;-71
2020/12/28 08:22:38;;;;;;;9.32;5.18;;;;;;;4.52;100.00;96808.28;18593535;28;20054;-71
2020/12/28 08:31:39;;;;;;;7.53;3.38;;;;;;;4.64;100.00;96793.44;18608687;28;20038;-70
2020/12/28 08:40:40;;;;;;;5.47;1.88;;;;;;;4.72;100.00;96776.25;18576183;28;20050;-71
2020/12/28 08:49:42;;;;;;;10.13;2.70;;;;;;;4.64;100.00;96793.44;18578577;28;20572;-70
2020/12/28 08:58:44;;;;;;;7.63;2.67;;;;;;;4.65;100.00;96797.69;18578821;28;20077;-71
2020/12/28 09:07:46;;;;;;;8.48;3.33;;;;;;;4.65;100.00;96798.50;18592912;28;20038;-70
2020/12/28 09:16:47;;;;;;;5.03;2.67;;;;;;;4.78;100.00;96800.81;18597889;28;20080;-70
2020/12/28 09:25:48;;;;;;;3.50;1.77;;;;;;;4.78;100.00;96800.00;18620638;28;20042;-71
2020/12/28 09:34:51;;;;;;;4.65;1.70;;;;;;;4.95;100.00;96801.91;18660901;28;20045;-71
2020/12/28 09:43:52;;;;;;;4.40;1.33;;;;;;;4.89;100.00;96800.69;18643660;28;20046;-71
2020/12/28 09:52:53;;;;;;;3.22;1.83;;;;;;;5.00;100.00;96794.53;18631537;28;20421;-71
2020/12/28 10:01:54;;;;;;;6.45;2.47;;;;;;;5.20;100.00;96783.22;18605457;28;20094;-71
2020/12/28 10:10:55;;;;;;;2.60;1.45;;;;;;;5.08;100.00;96777.34;18591020;28;20062;-70
2020/12/28 10:19:56;;;;;;;6.15;2.45;;;;;;;5.08;100.00;96768.75;18587487;28;20558;-71
2020/12/28 10:28:58;;;;;;;4.80;2.00;;;;;;;5.31;100.00;96758.91;18591866;28;20104;-71
2020/12/28 10:37:58;;;;;;;4.28;1.70;;;;;;;5.37;100.00;96769.53;18605245;28;20045;-70
2020/12/28 10:46:59;;;;;;;5.05;2.00;;;;;;;5.42;100.00;96748.38;18642277;28;20041;-70
2020/12/28 10:56:00;;;;;;;4.32;1.50;;;;;;;5.64;100.00;96735.03;18653797;28;20049;-70
2020/12/28 11:05:01;;;;;;;3.38;1.48;;;;;;;5.70;100.00;96731.88;18638781;28;20125;-70
2020/12/28 11:14:02;;;;;;;1.85;1.00;;;;;;;5.77;100.00;96725.16;18633561;28;20513;-72
2020/12/28 11:23:03;;;;;;;6.55;2.63;;;;;;;5.97;100.00;96737.13;18641570;28;20077;-73
2020/12/28 11:32:04;;;;;;;7.40;3.50;;;;;;;5.80;100.00;96732.66;18628759;28;20046;-72
2020/12/28 11:41:05;;;;;;;5.65;2.60;;;;;;;5.58;100.00;96746.00;18622548;28;20105;-72
2020/12/28 11:50:07;;;;;;;4.90;2.00;;;;;;;5.42;100.00;96761.34;18630829;28;20084;-72
2020/12/28 11:59:08;;;;;;;5.57;1.40;;;;;;;5.27;100.00;96773.09;18639263;28;20046;-72
2020/12/28 12:08:09;;;;;;;3.05;0.70;;;;;;;4.28;100.00;96806.06;18603538;28;20038;-73
2020/12/28 12:17:10;;;;;;;2.30;0.98;;;;;;;4.20;100.00;96810.25;18624451;28;20486;-72
2020/12/28 12:26:12;;;;;;;3.83;0.90;;;;;;;4.06;100.00;96801.09;18632045;28;20494;-71
2020/12/28 12:35:15;;;;;;;2.17;1.02;;;;;;;4.22;100.00;96804.00;18609091;28;20054;-70
2020/12/28 12:44:16;;;;;;;2.28;0.90;;;;;;;4.39;100.00;96787.00;18583357;28;20046;-71
2020/12/28 12:53:17;;;;;;;3.17;1.33;;;;;;;4.47;100.00;96778.59;18561811;28;20500;-71
2020/12/28 13:02:18;;;;;;;4.40;1.70;;;;;;;4.65;100.00;96776.97;18640493;28;20058;-70
2020/12/28 13:11:19;;;;;;;3.03;1.60;;;;;;;4.79;100.00;96758.41;18629980;28;20076;-70
2020/12/28 13:20:21;;;;;;;8.00;3.10;;;;;;;4.89;100.00;96777.38;18623864;28;20069;-71
2020/12/28 13:29:22;;;;;;;9.98;3.72;;;;;;;4.88;100.00;96773.13;18635229;28;20058;-70
2020/12/28 13:38:23;;;;;;;7.00;3.10;;;;;;;5.03;100.00;96771.75;18614549;28;20073;-70
2020/12/28 13:47:24;;;;;;;5.25;2.00;;;;;;;5.12;100.00;96778.72;18607029;28;20081;-70
2020/12/28 13:56:25;;;;;;;4.30;1.80;;;;;;;5.14;100.00;96801.91;18633564;28;20486;-70
2020/12/28 14:05:26;;;;;;;4.18;1.70;;;;;;;5.09;100.00;96802.31;18627846;28;20119;-70
2020/12/28 14:14:27;;;;;;;5.88;3.17;;;;;;;5.12;100.00;96819.38;18633420;28;20077;-70
2020/12/28 14:23:29;;;;;;;5.22;2.40;;;;;;;5.18;100.00;96820.59;18638350;28;20497;-70
2020/12/28 14:32:30;;;;;;;5.63;3.03;;;;;;;5.11;100.00;96818.56;18646176;28;20080;-70
2020/12/28 14:41:31;;;;;;;5.57;2.65;;;;;;;4.98;100.00;96820.59;18646011;28;20038;-70
2020/12/28 14:50:32;;;;;;;7.72;3.25;;;;;;;4.85;100.00;96848.56;18613745;28;20077;-71
2020/12/28 14:59:35;;;;;;;5.57;2.58;;;;;;;4.86;100.00;96833.81;18608917;28;20042;-71
2020/12/28 15:08:36;;;;;;;4.72;1.90;;;;;;;4.73;100.00;96852.19;18623677;28;20062;-70
2020/12/28 15:17:37;;;;;;;3.00;1.30;;;;;;;4.53;100.00;96869.47;18640514;28;20065;-71
2020/12/28 15:26:38;;;;;;;1.35;0.85;;;;;;;4.40;100.00;96873.25;18613763;28;20177;-70
2020/12/28 15:35:39;;;;;;;3.83;1.45;;;;;;;4.13;100.00;96873.84;18605585;28;20112;-70
2020/12/28 15:44:40;;;;;;;7.68;2.42;;;;;;;3.92;100.00;96902.31;18591971;28;20052;-70
2020/12/28 15:53:41;;;;;;;6.82;2.35;;;;;;;3.94;100.00;96903.03;18615941;28;20680;-70
2020/12/28 16:02:42;;;;;;;9.07;5.05;;;;;;;3.84;100.00;96904.75;18629303;28;20046;-71
2020/12/28 16:11:44;;;;;;;15.55;5.60;;;;;;;3.72;100.00;96913.50;18635569;28;20050;-71
2020/12/28 16:20:45;;;;;;;9.40;4.45;;;;;;;3.54;100.00;96897.75;18637541;28;20589;-70
2020/12/28 16:29:46;;;;;;;9.70;5.65;;;;;;;3.41;100.00;96890.16;18621555;28;20038;-70
2020/12/28 16:38:49;;;;;;;8.68;5.03;;;;;;;3.26;100.00;96888.81;18646201;28;20066;-70
2020/12/28 16:47:50;;;;;;;11.40;6.27;;;;;;;3.11;100.00;96890.06;18625899;28;20053;-70
2020/12/28 16:56:51;;;;;;;9.48;4.85;;;;;;;3.03;100.00;96889.88;18631038;28;20696;-70
2020/12/28 17:05:52;;;;;;;9.98;6.18;;;;;;;2.97;100.00;96900.69;18635550;28;20072;-70
2020/12/28 17:14:53;;;;;;;8.32;4.70;;;;;;;2.86;100.00;96901.53;18611947;28;20054;-70
2020/12/28 17:23:54;;;;;;;8.32;4.63;;;;;;;2.71;100.00;96894.16;18602532;28;20049;-70
2020/12/28 17:32:55;;;;;;;8.85;4.75;;;;;;;2.59;100.00;96894.19;18601651;28;20050;-70
2020/12/28 17:41:56;;;;;;;9.57;5.00;;;;;;;2.39;100.00;96887.19;18608944;28;20478;-69
2020/12/28 17:50:57;;;;;;;8.35;4.13;;;;;;;2.32;100.00;96880.88;18638326;28;20054;-69
2020/12/28 17:59:57;;;;;;;8.65;4.63;;;;;;;2.21;100.00;96867.97;18637490;28;20495;-69
2020/12/28 18:08:58;;;;;;;7.90;4.18;;;;;;;2.11;100.00;96878.19;18614171;28;20422;-69
2020/12/28 18:17:59;;;;;;;21.13;11.27;;;;;;;1.95;100.00;96876.88;18617643;28;20093;-70
2020/12/28 18:27:00;;;;;;;15.05;7.90;;;;;;;1.73;100.00;96877.66;18625556;28;20407;-69
2020/12/28 18:36:07;;;;;;;14.73;7.93;;;;;;;1.47;100.00;96884.78;18628027;28;20080;-71
2020/12/28 18:45:08;;;;;;;18.92;10.20;;;;;;;1.34;100.00;96871.16;18621785;28;20070;-69
2020/12/28 18:54:35;;;;;;;23.95;12.77;;;;;;;1.20;100.00;96876.50;18633992;28;20084;-69
2020/12/28 19:03:36;;;;;;;22.33;11.93;;;;;;;1.14;100.00;96882.91;18626024;28;20098;-70
2020/12/28 19:12:37;;;;;;;22.85;12.48;;;;;;;1.05;100.00;96881.03;18624537;28;20055;-70
2020/12/28 19:21:38;;;;;;;19.80;12.65;;;;;;;0.89;100.00;96874.50;18632744;28;20107;-69
2020/12/28 19:30:40;;;;;;;18.20;11.25;;;;;;;0.66;100.00;96876.16;18625401;28;20049;-69
2020/12/28 19:39:41;;;;;;;20.05;12.43;;;;;;;0.58;100.00;96881.84;18637240;28;20458;-69
2020/12/28 19:48:42;;;;;;;27.05;16.20;;;;;;;0.52;100.00;96889.97;18600274;28;20069;-69
2020/12/28 19:57:43;;;;;;;42.42;23.48;;;;;;;0.42;100.00;96881.25;18609505;28;20499;-69
2020/12/28 20:06:54;;;;;;;30.27;17.48;;;;;;;0.42;100.00;96887.22;18606828;28;20065;-69
2020/12/28 20:15:55;;;;;;;33.53;19.65;;;;;;;0.50;100.00;96899.56;18607420;28;20061;-69
2020/12/28 20:24:56;;;;;;;31.65;20.63;;;;;;;0.62;100.00;96890.97;18604127;28;20046;-69
2020/12/28 20:33:56;;;;;;;32.80;20.98;;;;;;;0.80;100.00;96887.13;18611738;28;20038;-69
2020/12/28 20:43:06;;;;;;;30.95;18.80;;;;;;;1.06;100.00;96908.41;18600645;28;20053;-69
2020/12/28 20:52:07;;;;;;;10.15;4.82;;;;;;;1.61;100.00;96930.97;18613335;28;20077;-69
2020/12/28 21:01:08;;;;;;;9.65;4.18;;;;;;;1.86;100.00;96924.81;18596048;28;20457;-70
2020/12/28 21:10:09;;;;;;;9.75;4.00;;;;;;;1.93;100.00;96904.56;18606492;28;20054;-70
2020/12/28 21:19:10;;;;;;;14.63;5.45;;;;;;;2.01;100.00;96889.31;18605877;28;20050;-70
2020/12/28 21:28:11;;;;;;;12.32;5.70;;;;;;;1.99;100.00;96880.84;18603963;28;20053;-70
2020/12/28 21:37:12;;;;;;;7.97;4.10;;;;;;;2.07;100.00;96883.69;18604080;28;20046;-70
2020/12/28 21:46:13;;;;;;;10.48;4.40;;;;;;;2.16;100.00;96893.31;18604261;28;20109;-70
2020/12/28 21:55:14;;;;;;;9.00;4.63;;;;;;;2.11;100.00;96890.25;18603105;28;20042;-71
2020/12/28 22:04:15;;;;;;;8.35;4.63;;;;;;;2.03;100.00;96879.72;18592203;28;20057;-71
2020/12/28 22:13:21;;;;;;;37.00;17.63;;;;;;;2.10;100.00;96870.56;18612381;28;20046;-71
2020/12/28 22:22:22;;;;;;;25.88;14.15;;;;;;;1.92;100.00;96861.66;18599358;28;20046;-70
2020/12/28 22:31:22;;;;;;;9.88;5.13;;;;;;;1.98;100.00;96861.97;18595555;28;20058;-71
2020/12/28 22:40:23;;;;;;;6.03;2.78;;;;;;;2.14;100.00;96846.97;18600054;28;20053;-71
2020/12/28 22:49:24;;;;;;;8.20;2.80;;;;;;;2.09;100.00;96850.84;18587512;28;20042;-71
2020/12/28 22:58:26;;;;;;;5.53;2.67;;;;;;;2.07;100.00;96865.63;18589382;28;20096;-71
2020/12/28 23:07:27;;;;;;;6.45;3.00;;;;;;;2.11;100.00;96859.31;18596679;28;20054;-71
2020/12/28 23:16:28;;;;;;;7.63;2.65;;;;;;;2.24;100.00;96870.31;18599500;28;20077;-71
2020/12/28 23:25:29;;;;;;;10.70;3.50;;;;;;;2.17;100.00;96876.91;18595411;28;20426;-70
2020/12/28 23:34:32;;;;;;;6.88;3.20;;;;;;;2.12;100.00;96860.94;18595163;28;20108;-71
2020/12/28 23:43:33;;;;;;;6.50;3.77;;;;;;;2.07;100.00;96870.78;18609280;28;20138;-71
2020/12/28 23:52:34;;;;;;;7.35;3.92;;;;;;;2.09;100.00;96871.47;18594676;28;20486;-71
